sensor_id;sensor_type;location;lat;lon;timestamp;P1;durP1;ratioP1;P2;durP2;ratioP2
76475;SDS011;65308;50.078;14.854;2024-01-10T00:01:37;22.60;;;9.20;;
76475;SDS011;65308;50.078;14.854;2024-01-10T00:04:05;20.10;;;10.35;;
76475;SDS011;65308;50.078;14.854;2024-01-10T00:06:32;27.00;;;11.30;;
76475;SDS011;65308;50.078;14.854;2024-01-10T00:08:58;20.33;;;10.07;;
76475;SDS011;65308;50.078;14.854;2024-01-10T00:11:26;27.83;;;11.38;;
76475;SDS011;65308;50.078;14.854;2024-01-10T00:13:53;30.85;;;10.93;;
76475;SDS011;65308;50.078;14.854;2024-01-10T00:16:24;28.40;;;11.25;;
76475;SDS011;65308;50.078;14.854;2024-01-10T00:18:51;26.67;;;9.60;;
76475;SDS011;65308;50.078;14.854;2024-01-10T00:21:18;29.02;;;11.10;;
76475;SDS011;65308;50.078;14.854;2024-01-10T00:23:44;24.23;;;10.30;;
76475;SDS011;65308;50.078;14.854;2024-01-10T00:26:11;33.83;;;12.30;;
76475;SDS011;65308;50.078;14.854;2024-01-10T00:28:39;33.95;;;11.63;;
76475;SDS011;65308;50.078;14.854;2024-01-10T00:31:06;45.22;;;14.30;;
76475;SDS011;65308;50.078;14.854;2024-01-10T00:33:32;38.33;;;13.30;;
76475;SDS011;65308;50.078;14.854;2024-01-10T00:35:59;36.28;;;12.13;;
76475;SDS011;65308;50.078;14.854;2024-01-10T00:38:26;37.33;;;14.57;;
76475;SDS011;65308;50.078;14.854;2024-01-10T00:40:52;31.60;;;12.80;;
76475;SDS011;65308;50.078;14.854;2024-01-10T00:43:19;31.00;;;10.00;;
76475;SDS011;65308;50.078;14.854;2024-01-10T00:45:47;28.45;;;11.43;;
76475;SDS011;65308;50.078;14.854;2024-01-10T00:48:14;26.60;;;10.63;;
76475;SDS011;65308;50.078;14.854;2024-01-10T00:50:42;24.80;;;9.52;;
76475;SDS011;65308;50.078;14.854;2024-01-10T00:53:09;30.05;;;13.75;;
76475;SDS011;65308;50.078;14.854;2024-01-10T00:55:36;34.75;;;12.05;;
76475;SDS011;65308;50.078;14.854;2024-01-10T00:58:03;20.55;;;10.32;;
76475;SDS011;65308;50.078;14.854;2024-01-10T01:00:31;25.92;;;9.90;;
76475;SDS011;65308;50.078;14.854;2024-01-10T01:03:00;22.70;;;9.30;;
76475;SDS011;65308;50.078;14.854;2024-01-10T01:05:28;27.98;;;11.77;;
76475;SDS011;65308;50.078;14.854;2024-01-10T01:07:55;29.75;;;10.85;;
76475;SDS011;65308;50.078;14.854;2024-01-10T01:10:22;24.92;;;10.93;;
76475;SDS011;65308;50.078;14.854;2024-01-10T01:12:49;25.38;;;10.38;;
76475;SDS011;65308;50.078;14.854;2024-01-10T01:15:15;27.45;;;10.68;;
76475;SDS011;65308;50.078;14.854;2024-01-10T01:17:42;31.98;;;11.98;;
76475;SDS011;65308;50.078;14.854;2024-01-10T01:20:10;30.83;;;13.20;;
76475;SDS011;65308;50.078;14.854;2024-01-10T01:22:37;33.58;;;13.18;;
76475;SDS011;65308;50.078;14.854;2024-01-10T01:25:04;34.03;;;12.38;;
76475;SDS011;65308;50.078;14.854;2024-01-10T01:27:31;30.05;;;13.35;;
76475;SDS011;65308;50.078;14.854;2024-01-10T01:29:58;30.55;;;12.32;;
76475;SDS011;65308;50.078;14.854;2024-01-10T01:32:24;36.28;;;14.88;;
76475;SDS011;65308;50.078;14.854;2024-01-10T01:34:51;46.30;;;17.67;;
76475;SDS011;65308;50.078;14.854;2024-01-10T01:37:19;31.52;;;13.93;;
76475;SDS011;65308;50.078;14.854;2024-01-10T01:39:46;36.63;;;14.23;;
76475;SDS011;65308;50.078;14.854;2024-01-10T01:42:13;34.35;;;13.90;;
76475;SDS011;65308;50.078;14.854;2024-01-10T01:44:39;32.33;;;12.73;;
76475;SDS011;65308;50.078;14.854;2024-01-10T01:47:06;36.92;;;13.63;;
76475;SDS011;65308;50.078;14.854;2024-01-10T01:49:32;32.13;;;12.90;;
76475;SDS011;65308;50.078;14.854;2024-01-10T01:51:59;31.08;;;14.07;;
76475;SDS011;65308;50.078;14.854;2024-01-10T01:54:29;41.53;;;13.73;;
76475;SDS011;65308;50.078;14.854;2024-01-10T01:56:58;37.42;;;14.05;;
76475;SDS011;65308;50.078;14.854;2024-01-10T01:59:25;25.08;;;10.55;;
76475;SDS011;65308;50.078;14.854;2024-01-10T02:01:52;34.38;;;12.35;;
76475;SDS011;65308;50.078;14.854;2024-01-10T02:04:21;34.92;;;10.82;;
76475;SDS011;65308;50.078;14.854;2024-01-10T02:06:48;28.67;;;12.40;;
76475;SDS011;65308;50.078;14.854;2024-01-10T02:09:14;31.98;;;12.48;;
76475;SDS011;65308;50.078;14.854;2024-01-10T02:11:43;39.05;;;13.30;;
76475;SDS011;65308;50.078;14.854;2024-01-10T02:14:09;27.30;;;11.10;;
76475;SDS011;65308;50.078;14.854;2024-01-10T02:16:36;38.65;;;14.20;;
76475;SDS011;65308;50.078;14.854;2024-01-10T02:19:16;24.75;;;10.23;;
76475;SDS011;65308;50.078;14.854;2024-01-10T02:21:44;31.45;;;12.55;;
76475;SDS011;65308;50.078;14.854;2024-01-10T02:24:10;33.83;;;13.60;;
76475;SDS011;65308;50.078;14.854;2024-01-10T02:26:38;47.08;;;17.00;;
76475;SDS011;65308;50.078;14.854;2024-01-10T02:31:32;27.52;;;9.93;;
76475;SDS011;65308;50.078;14.854;2024-01-10T02:33:59;27.92;;;11.00;;
76475;SDS011;65308;50.078;14.854;2024-01-10T02:36:26;35.72;;;13.63;;
76475;SDS011;65308;50.078;14.854;2024-01-10T02:38:52;31.35;;;12.40;;
76475;SDS011;65308;50.078;14.854;2024-01-10T02:41:19;32.88;;;13.85;;
76475;SDS011;65308;50.078;14.854;2024-01-10T02:43:47;30.08;;;12.40;;
76475;SDS011;65308;50.078;14.854;2024-01-10T02:46:13;29.40;;;11.52;;
76475;SDS011;65308;50.078;14.854;2024-01-10T02:48:40;29.13;;;11.50;;
76475;SDS011;65308;50.078;14.854;2024-01-10T02:51:07;36.65;;;14.68;;
76475;SDS011;65308;50.078;14.854;2024-01-10T02:53:33;32.63;;;12.65;;
76475;SDS011;65308;50.078;14.854;2024-01-10T02:56:00;28.17;;;12.35;;
76475;SDS011;65308;50.078;14.854;2024-01-10T02:58:27;37.80;;;16.27;;
76475;SDS011;65308;50.078;14.854;2024-01-10T03:00:56;31.80;;;12.35;;
76475;SDS011;65308;50.078;14.854;2024-01-10T03:03:23;29.60;;;12.88;;
76475;SDS011;65308;50.078;14.854;2024-01-10T03:05:49;29.00;;;13.20;;
76475;SDS011;65308;50.078;14.854;2024-01-10T03:08:16;35.05;;;12.13;;
76475;SDS011;65308;50.078;14.854;2024-01-10T03:10:42;31.67;;;13.05;;
76475;SDS011;65308;50.078;14.854;2024-01-10T03:13:09;37.35;;;14.07;;
76475;SDS011;65308;50.078;14.854;2024-01-10T03:15:36;34.78;;;13.13;;
76475;SDS011;65308;50.078;14.854;2024-01-10T03:18:04;36.28;;;14.18;;
76475;SDS011;65308;50.078;14.854;2024-01-10T03:20:31;34.17;;;13.95;;
76475;SDS011;65308;50.078;14.854;2024-01-10T03:22:56;34.35;;;11.90;;
76475;SDS011;65308;50.078;14.854;2024-01-10T03:25:23;36.60;;;14.15;;
76475;SDS011;65308;50.078;14.854;2024-01-10T03:27:50;26.75;;;12.43;;
76475;SDS011;65308;50.078;14.854;2024-01-10T03:30:16;31.13;;;11.38;;
76475;SDS011;65308;50.078;14.854;2024-01-10T03:32:44;30.38;;;13.25;;
76475;SDS011;65308;50.078;14.854;2024-01-10T03:35:12;31.48;;;12.32;;
76475;SDS011;65308;50.078;14.854;2024-01-10T03:37:39;31.23;;;14.05;;
76475;SDS011;65308;50.078;14.854;2024-01-10T03:40:07;35.60;;;14.13;;
76475;SDS011;65308;50.078;14.854;2024-01-10T03:42:34;39.55;;;13.68;;
76475;SDS011;65308;50.078;14.854;2024-01-10T03:45:01;36.13;;;13.18;;
76475;SDS011;65308;50.078;14.854;2024-01-10T03:47:28;30.15;;;12.73;;
76475;SDS011;65308;50.078;14.854;2024-01-10T03:49:54;28.60;;;12.10;;
76475;SDS011;65308;50.078;14.854;2024-01-10T03:52:23;30.17;;;12.30;;
76475;SDS011;65308;50.078;14.854;2024-01-10T03:54:50;34.13;;;12.50;;
76475;SDS011;65308;50.078;14.854;2024-01-10T03:57:16;23.90;;;10.88;;
76475;SDS011;65308;50.078;14.854;2024-01-10T03:59:43;30.70;;;12.95;;
76475;SDS011;65308;50.078;14.854;2024-01-10T04:02:09;33.55;;;11.90;;
76475;SDS011;65308;50.078;14.854;2024-01-10T04:04:36;31.50;;;12.80;;
76475;SDS011;65308;50.078;14.854;2024-01-10T04:07:03;28.65;;;12.57;;
76475;SDS011;65308;50.078;14.854;2024-01-10T04:09:31;23.00;;;11.10;;
76475;SDS011;65308;50.078;14.854;2024-01-10T04:11:58;34.53;;;11.75;;
76475;SDS011;65308;50.078;14.854;2024-01-10T04:14:25;28.67;;;10.57;;
76475;SDS011;65308;50.078;14.854;2024-01-10T04:16:53;28.25;;;10.13;;
76475;SDS011;65308;50.078;14.854;2024-01-10T04:21:46;22.50;;;9.20;;
76475;SDS011;65308;50.078;14.854;2024-01-10T04:24:13;22.50;;;8.80;;
76475;SDS011;65308;50.078;14.854;2024-01-10T04:26:41;28.45;;;12.00;;
76475;SDS011;65308;50.078;14.854;2024-01-10T04:29:07;31.15;;;13.07;;
76475;SDS011;65308;50.078;14.854;2024-01-10T04:31:34;26.80;;;11.00;;
76475;SDS011;65308;50.078;14.854;2024-01-10T04:34:02;29.20;;;12.23;;
76475;SDS011;65308;50.078;14.854;2024-01-10T04:36:28;38.90;;;12.77;;
76475;SDS011;65308;50.078;14.854;2024-01-10T04:38:56;29.33;;;12.23;;
76475;SDS011;65308;50.078;14.854;2024-01-10T04:41:23;32.25;;;12.15;;
76475;SDS011;65308;50.078;14.854;2024-01-10T04:43:51;33.13;;;13.63;;
76475;SDS011;65308;50.078;14.854;2024-01-10T04:46:18;35.25;;;12.73;;
76475;SDS011;65308;50.078;14.854;2024-01-10T04:48:44;33.45;;;13.57;;
76475;SDS011;65308;50.078;14.854;2024-01-10T04:51:11;35.35;;;11.75;;
76475;SDS011;65308;50.078;14.854;2024-01-10T04:53:37;37.53;;;12.32;;
76475;SDS011;65308;50.078;14.854;2024-01-10T04:56:04;26.50;;;10.15;;
76475;SDS011;65308;50.078;14.854;2024-01-10T04:58:31;34.80;;;14.27;;
76475;SDS011;65308;50.078;14.854;2024-01-10T05:01:00;36.13;;;15.02;;
76475;SDS011;65308;50.078;14.854;2024-01-10T05:03:27;31.58;;;11.55;;
76475;SDS011;65308;50.078;14.854;2024-01-10T05:05:54;33.15;;;13.13;;
76475;SDS011;65308;50.078;14.854;2024-01-10T05:08:20;33.30;;;12.73;;
76475;SDS011;65308;50.078;14.854;2024-01-10T05:10:47;31.55;;;13.35;;
76475;SDS011;65308;50.078;14.854;2024-01-10T05:13:14;33.63;;;12.52;;
76475;SDS011;65308;50.078;14.854;2024-01-10T05:15:40;29.10;;;10.68;;
76475;SDS011;65308;50.078;14.854;2024-01-10T05:18:08;31.00;;;13.23;;
76475;SDS011;65308;50.078;14.854;2024-01-10T05:20:35;29.60;;;10.63;;
76475;SDS011;65308;50.078;14.854;2024-01-10T05:23:02;24.58;;;12.45;;
76475;SDS011;65308;50.078;14.854;2024-01-10T05:25:27;26.23;;;10.73;;
76475;SDS011;65308;50.078;14.854;2024-01-10T05:27:54;30.85;;;11.48;;
76475;SDS011;65308;50.078;14.854;2024-01-10T05:30:21;30.40;;;11.57;;
76475;SDS011;65308;50.078;14.854;2024-01-10T05:32:48;33.22;;;11.45;;
76475;SDS011;65308;50.078;14.854;2024-01-10T05:35:16;31.25;;;10.70;;
76475;SDS011;65308;50.078;14.854;2024-01-10T05:37:42;23.98;;;9.50;;
76475;SDS011;65308;50.078;14.854;2024-01-10T05:40:09;34.72;;;14.43;;
76475;SDS011;65308;50.078;14.854;2024-01-10T05:42:36;28.67;;;10.63;;
76475;SDS011;65308;50.078;14.854;2024-01-10T05:45:03;41.92;;;19.38;;
76475;SDS011;65308;50.078;14.854;2024-01-10T05:47:31;43.55;;;18.00;;
76475;SDS011;65308;50.078;14.854;2024-01-10T05:49:57;27.13;;;11.45;;
76475;SDS011;65308;50.078;14.854;2024-01-10T05:52:25;23.35;;;10.50;;
76475;SDS011;65308;50.078;14.854;2024-01-10T05:54:52;26.40;;;9.63;;
76475;SDS011;65308;50.078;14.854;2024-01-10T05:57:19;16.67;;;10.07;;
76475;SDS011;65308;50.078;14.854;2024-01-10T05:59:46;24.00;;;10.32;;
76475;SDS011;65308;50.078;14.854;2024-01-10T06:02:13;22.67;;;10.32;;
76475;SDS011;65308;50.078;14.854;2024-01-10T06:04:41;27.52;;;10.07;;
76475;SDS011;65308;50.078;14.854;2024-01-10T06:07:08;30.52;;;11.63;;
76475;SDS011;65308;50.078;14.854;2024-01-10T06:09:36;21.80;;;9.85;;
76475;SDS011;65308;50.078;14.854;2024-01-10T06:12:03;22.17;;;11.23;;
76475;SDS011;65308;50.078;14.854;2024-01-10T06:14:30;22.63;;;9.35;;
76475;SDS011;65308;50.078;14.854;2024-01-10T06:16:56;28.58;;;12.88;;
76475;SDS011;65308;50.078;14.854;2024-01-10T06:19:24;29.25;;;11.80;;
76475;SDS011;65308;50.078;14.854;2024-01-10T06:21:51;23.20;;;11.27;;
76475;SDS011;65308;50.078;14.854;2024-01-10T06:24:19;23.52;;;10.90;;
76475;SDS011;65308;50.078;14.854;2024-01-10T06:26:47;26.75;;;10.73;;
76475;SDS011;65308;50.078;14.854;2024-01-10T06:29:14;29.98;;;11.25;;
76475;SDS011;65308;50.078;14.854;2024-01-10T06:31:41;24.25;;;10.27;;
76475;SDS011;65308;50.078;14.854;2024-01-10T06:34:07;31.13;;;12.25;;
76475;SDS011;65308;50.078;14.854;2024-01-10T06:36:34;28.70;;;11.27;;
76475;SDS011;65308;50.078;14.854;2024-01-10T06:39:03;27.55;;;10.43;;
76475;SDS011;65308;50.078;14.854;2024-01-10T06:41:31;26.88;;;12.25;;
76475;SDS011;65308;50.078;14.854;2024-01-10T06:43:59;31.17;;;13.50;;
76475;SDS011;65308;50.078;14.854;2024-01-10T06:46:28;34.45;;;12.40;;
76475;SDS011;65308;50.078;14.854;2024-01-10T06:48:55;34.33;;;11.82;;
76475;SDS011;65308;50.078;14.854;2024-01-10T06:51:22;25.27;;;10.75;;
76475;SDS011;65308;50.078;14.854;2024-01-10T06:53:49;24.23;;;10.35;;
76475;SDS011;65308;50.078;14.854;2024-01-10T06:56:16;26.50;;;9.05;;
76475;SDS011;65308;50.078;14.854;2024-01-10T06:58:43;20.58;;;9.10;;
76475;SDS011;65308;50.078;14.854;2024-01-10T07:01:14;25.48;;;8.35;;
76475;SDS011;65308;50.078;14.854;2024-01-10T07:03:41;21.77;;;8.73;;
76475;SDS011;65308;50.078;14.854;2024-01-10T07:06:09;43.40;;;15.88;;
76475;SDS011;65308;50.078;14.854;2024-01-10T07:08:39;25.38;;;11.98;;
76475;SDS011;65308;50.078;14.854;2024-01-10T07:11:07;24.55;;;9.60;;
76475;SDS011;65308;50.078;14.854;2024-01-10T07:13:33;32.47;;;11.15;;
76475;SDS011;65308;50.078;14.854;2024-01-10T07:16:01;31.48;;;9.63;;
76475;SDS011;65308;50.078;14.854;2024-01-10T07:18:31;25.17;;;11.25;;
76475;SDS011;65308;50.078;14.854;2024-01-10T07:20:57;32.20;;;12.38;;
76475;SDS011;65308;50.078;14.854;2024-01-10T07:23:24;36.33;;;13.88;;
76475;SDS011;65308;50.078;14.854;2024-01-10T07:25:51;41.85;;;16.48;;
76475;SDS011;65308;50.078;14.854;2024-01-10T07:28:20;29.15;;;11.48;;
76475;SDS011;65308;50.078;14.854;2024-01-10T07:30:47;24.70;;;10.77;;
76475;SDS011;65308;50.078;14.854;2024-01-10T07:33:14;32.35;;;13.60;;
76475;SDS011;65308;50.078;14.854;2024-01-10T07:35:42;35.22;;;13.32;;
76475;SDS011;65308;50.078;14.854;2024-01-10T07:38:09;37.80;;;14.00;;
76475;SDS011;65308;50.078;14.854;2024-01-10T07:40:36;34.80;;;13.10;;
76475;SDS011;65308;50.078;14.854;2024-01-10T07:43:04;32.20;;;12.10;;
76475;SDS011;65308;50.078;14.854;2024-01-10T07:45:30;29.27;;;12.00;;
76475;SDS011;65308;50.078;14.854;2024-01-10T07:47:58;31.30;;;11.70;;
76475;SDS011;65308;50.078;14.854;2024-01-10T07:50:25;32.83;;;12.73;;
76475;SDS011;65308;50.078;14.854;2024-01-10T07:52:54;30.73;;;13.18;;
76475;SDS011;65308;50.078;14.854;2024-01-10T07:55:21;34.78;;;14.63;;
76475;SDS011;65308;50.078;14.854;2024-01-10T07:57:48;31.77;;;14.35;;
76475;SDS011;65308;50.078;14.854;2024-01-10T08:00:15;39.28;;;15.50;;
76475;SDS011;65308;50.078;14.854;2024-01-10T08:02:44;36.28;;;16.27;;
76475;SDS011;65308;50.078;14.854;2024-01-10T08:05:11;34.72;;;15.75;;
76475;SDS011;65308;50.078;14.854;2024-01-10T08:07:38;31.55;;;15.38;;
76475;SDS011;65308;50.078;14.854;2024-01-10T08:10:06;34.58;;;16.55;;
76475;SDS011;65308;50.078;14.854;2024-01-10T08:12:34;33.22;;;16.02;;
76475;SDS011;65308;50.078;14.854;2024-01-10T08:15:01;38.13;;;16.13;;
76475;SDS011;65308;50.078;14.854;2024-01-10T08:17:28;36.38;;;17.48;;
76475;SDS011;65308;50.078;14.854;2024-01-10T08:19:55;34.67;;;16.55;;
76475;SDS011;65308;50.078;14.854;2024-01-10T08:22:22;35.13;;;16.88;;
76475;SDS011;65308;50.078;14.854;2024-01-10T08:24:48;30.42;;;15.20;;
76475;SDS011;65308;50.078;14.854;2024-01-10T08:27:16;31.73;;;15.25;;
76475;SDS011;65308;50.078;14.854;2024-01-10T08:29:43;37.58;;;18.23;;
76475;SDS011;65308;50.078;14.854;2024-01-10T08:32:10;32.17;;;15.68;;
76475;SDS011;65308;50.078;14.854;2024-01-10T08:34:37;34.42;;;15.82;;
76475;SDS011;65308;50.078;14.854;2024-01-10T08:37:04;34.03;;;15.93;;
76475;SDS011;65308;50.078;14.854;2024-01-10T08:39:30;30.73;;;14.90;;
76475;SDS011;65308;50.078;14.854;2024-01-10T08:41:57;40.38;;;20.38;;
76475;SDS011;65308;50.078;14.854;2024-01-10T08:44:25;33.28;;;18.02;;
76475;SDS011;65308;50.078;14.854;2024-01-10T08:46:52;34.85;;;16.77;;
76475;SDS011;65308;50.078;14.854;2024-01-10T08:49:19;31.23;;;16.40;;
76475;SDS011;65308;50.078;14.854;2024-01-10T08:51:46;32.60;;;14.85;;
76475;SDS011;65308;50.078;14.854;2024-01-10T08:54:14;33.95;;;17.13;;
76475;SDS011;65308;50.078;14.854;2024-01-10T08:56:44;31.40;;;15.85;;
76475;SDS011;65308;50.078;14.854;2024-01-10T08:59:11;31.15;;;15.55;;
76475;SDS011;65308;50.078;14.854;2024-01-10T09:01:41;32.13;;;16.98;;
76475;SDS011;65308;50.078;14.854;2024-01-10T09:04:08;31.40;;;17.75;;
76475;SDS011;65308;50.078;14.854;2024-01-10T09:06:35;36.83;;;19.70;;
76475;SDS011;65308;50.078;14.854;2024-01-10T09:09:01;32.22;;;16.65;;
76475;SDS011;65308;50.078;14.854;2024-01-10T09:11:28;38.55;;;18.88;;
76475;SDS011;65308;50.078;14.854;2024-01-10T09:13:55;35.63;;;15.45;;
76475;SDS011;65308;50.078;14.854;2024-01-10T09:16:22;28.35;;;14.40;;
76475;SDS011;65308;50.078;14.854;2024-01-10T09:18:51;25.08;;;12.95;;
76475;SDS011;65308;50.078;14.854;2024-01-10T09:21:21;31.85;;;13.50;;
76475;SDS011;65308;50.078;14.854;2024-01-10T09:23:48;32.72;;;13.88;;
76475;SDS011;65308;50.078;14.854;2024-01-10T09:26:16;29.95;;;14.55;;
76475;SDS011;65308;50.078;14.854;2024-01-10T09:28:43;30.95;;;14.80;;
76475;SDS011;65308;50.078;14.854;2024-01-10T09:31:10;29.15;;;13.07;;
76475;SDS011;65308;50.078;14.854;2024-01-10T09:33:36;25.83;;;11.70;;
76475;SDS011;65308;50.078;14.854;2024-01-10T09:36:05;30.52;;;12.15;;
76475;SDS011;65308;50.078;14.854;2024-01-10T09:38:34;23.60;;;10.73;;
76475;SDS011;65308;50.078;14.854;2024-01-10T09:41:02;21.05;;;9.82;;
76475;SDS011;65308;50.078;14.854;2024-01-10T09:43:30;23.58;;;10.90;;
76475;SDS011;65308;50.078;14.854;2024-01-10T09:45:57;26.90;;;11.10;;
76475;SDS011;65308;50.078;14.854;2024-01-10T09:48:25;21.30;;;9.60;;
76475;SDS011;65308;50.078;14.854;2024-01-10T09:50:52;22.52;;;10.38;;
76475;SDS011;65308;50.078;14.854;2024-01-10T09:53:22;24.00;;;11.77;;
76475;SDS011;65308;50.078;14.854;2024-01-10T09:55:49;28.13;;;11.10;;
76475;SDS011;65308;50.078;14.854;2024-01-10T09:58:16;24.35;;;10.13;;
76475;SDS011;65308;50.078;14.854;2024-01-10T10:00:43;25.90;;;10.45;;
76475;SDS011;65308;50.078;14.854;2024-01-10T10:03:10;22.73;;;9.40;;
76475;SDS011;65308;50.078;14.854;2024-01-10T10:05:38;25.48;;;9.75;;
76475;SDS011;65308;50.078;14.854;2024-01-10T10:08:07;29.15;;;10.68;;
76475;SDS011;65308;50.078;14.854;2024-01-10T10:10:37;22.38;;;10.07;;
76475;SDS011;65308;50.078;14.854;2024-01-10T10:13:08;23.60;;;10.02;;
76475;SDS011;65308;50.078;14.854;2024-01-10T10:15:36;21.23;;;9.88;;
76475;SDS011;65308;50.078;14.854;2024-01-10T10:18:04;24.17;;;11.18;;
76475;SDS011;65308;50.078;14.854;2024-01-10T10:20:31;26.58;;;10.60;;
76475;SDS011;65308;50.078;14.854;2024-01-10T10:23:01;23.75;;;9.77;;
76475;SDS011;65308;50.078;14.854;2024-01-10T10:25:30;23.90;;;9.95;;
76475;SDS011;65308;50.078;14.854;2024-01-10T10:28:00;23.98;;;9.93;;
76475;SDS011;65308;50.078;14.854;2024-01-10T10:30:28;24.10;;;10.52;;
76475;SDS011;65308;50.078;14.854;2024-01-10T10:32:56;23.40;;;11.13;;
76475;SDS011;65308;50.078;14.854;2024-01-10T10:35:23;20.67;;;10.90;;
76475;SDS011;65308;50.078;14.854;2024-01-10T10:37:50;23.65;;;10.35;;
76475;SDS011;65308;50.078;14.854;2024-01-10T10:40:19;20.20;;;9.65;;
76475;SDS011;65308;50.078;14.854;2024-01-10T10:42:47;22.88;;;10.35;;
76475;SDS011;65308;50.078;14.854;2024-01-10T10:45:16;24.63;;;11.40;;
76475;SDS011;65308;50.078;14.854;2024-01-10T10:47:44;33.90;;;14.32;;
76475;SDS011;65308;50.078;14.854;2024-01-10T10:50:17;22.70;;;10.23;;
76475;SDS011;65308;50.078;14.854;2024-01-10T10:52:48;29.85;;;11.95;;
76475;SDS011;65308;50.078;14.854;2024-01-10T10:55:17;25.25;;;10.50;;
76475;SDS011;65308;50.078;14.854;2024-01-10T10:57:45;21.33;;;9.80;;
76475;SDS011;65308;50.078;14.854;2024-01-10T11:00:13;24.80;;;9.48;;
76475;SDS011;65308;50.078;14.854;2024-01-10T11:02:42;18.52;;;8.75;;
76475;SDS011;65308;50.078;14.854;2024-01-10T11:05:10;21.85;;;8.68;;
76475;SDS011;65308;50.078;14.854;2024-01-10T11:07:37;21.30;;;9.20;;
76475;SDS011;65308;50.078;14.854;2024-01-10T11:10:07;18.48;;;8.35;;
76475;SDS011;65308;50.078;14.854;2024-01-10T11:12:48;18.58;;;8.60;;
76475;SDS011;65308;50.078;14.854;2024-01-10T11:15:38;22.15;;;9.95;;
76475;SDS011;65308;50.078;14.854;2024-01-10T11:18:29;22.63;;;9.70;;
76475;SDS011;65308;50.078;14.854;2024-01-10T11:21:11;21.80;;;10.07;;
76475;SDS011;65308;50.078;14.854;2024-01-10T11:23:50;22.25;;;9.75;;
76475;SDS011;65308;50.078;14.854;2024-01-10T11:26:19;19.88;;;10.40;;
76475;SDS011;65308;50.078;14.854;2024-01-10T11:28:46;21.75;;;9.23;;
76475;SDS011;65308;50.078;14.854;2024-01-10T11:31:13;26.88;;;10.80;;
76475;SDS011;65308;50.078;14.854;2024-01-10T11:33:42;30.17;;;12.57;;
76475;SDS011;65308;50.078;14.854;2024-01-10T11:36:12;24.15;;;11.20;;
76475;SDS011;65308;50.078;14.854;2024-01-10T11:38:44;23.20;;;9.77;;
76475;SDS011;65308;50.078;14.854;2024-01-10T11:41:21;23.55;;;10.13;;
76475;SDS011;65308;50.078;14.854;2024-01-10T11:46:52;22.48;;;10.07;;
76475;SDS011;65308;50.078;14.854;2024-01-10T11:49:22;25.45;;;11.57;;
76475;SDS011;65308;50.078;14.854;2024-01-10T11:51:49;20.40;;;9.57;;
76475;SDS011;65308;50.078;14.854;2024-01-10T11:59:57;20.10;;;8.88;;
76475;SDS011;65308;50.078;14.854;2024-01-10T12:02:25;24.02;;;10.60;;
76475;SDS011;65308;50.078;14.854;2024-01-10T12:04:54;22.40;;;9.98;;
76475;SDS011;65308;50.078;14.854;2024-01-10T12:07:21;21.33;;;9.90;;
76475;SDS011;65308;50.078;14.854;2024-01-10T12:09:48;19.27;;;9.52;;
76475;SDS011;65308;50.078;14.854;2024-01-10T12:12:15;18.83;;;8.93;;
76475;SDS011;65308;50.078;14.854;2024-01-10T12:14:42;21.27;;;8.98;;
76475;SDS011;65308;50.078;14.854;2024-01-10T12:17:11;18.27;;;8.93;;
76475;SDS011;65308;50.078;14.854;2024-01-10T12:19:38;19.30;;;8.43;;
76475;SDS011;65308;50.078;14.854;2024-01-10T12:22:06;17.45;;;8.05;;
76475;SDS011;65308;50.078;14.854;2024-01-10T12:24:33;17.73;;;7.63;;
76475;SDS011;65308;50.078;14.854;2024-01-10T12:27:00;18.92;;;8.50;;
76475;SDS011;65308;50.078;14.854;2024-01-10T12:31:55;19.60;;;7.38;;
76475;SDS011;65308;50.078;14.854;2024-01-10T12:34:21;19.63;;;8.25;;
76475;SDS011;65308;50.078;14.854;2024-01-10T12:36:48;18.58;;;8.48;;
76475;SDS011;65308;50.078;14.854;2024-01-10T12:39:16;19.10;;;8.48;;
76475;SDS011;65308;50.078;14.854;2024-01-10T12:41:43;18.35;;;8.55;;
76475;SDS011;65308;50.078;14.854;2024-01-10T12:44:11;16.00;;;8.68;;
76475;SDS011;65308;50.078;14.854;2024-01-10T12:46:47;22.52;;;8.88;;
76475;SDS011;65308;50.078;14.854;2024-01-10T12:49:17;17.02;;;8.25;;
76475;SDS011;65308;50.078;14.854;2024-01-10T12:51:44;20.65;;;10.10;;
76475;SDS011;65308;50.078;14.854;2024-01-10T12:54:14;13.60;;;6.95;;
76475;SDS011;65308;50.078;14.854;2024-01-10T12:56:43;19.50;;;7.50;;
76475;SDS011;65308;50.078;14.854;2024-01-10T12:59:10;16.30;;;7.90;;
76475;SDS011;65308;50.078;14.854;2024-01-10T13:01:37;15.32;;;7.80;;
76475;SDS011;65308;50.078;14.854;2024-01-10T13:04:04;15.32;;;7.45;;
76475;SDS011;65308;50.078;14.854;2024-01-10T13:06:31;16.80;;;7.65;;
76475;SDS011;65308;50.078;14.854;2024-01-10T13:08:58;17.25;;;7.43;;
76475;SDS011;65308;50.078;14.854;2024-01-10T13:11:25;17.55;;;7.50;;
76475;SDS011;65308;50.078;14.854;2024-01-10T13:13:53;18.60;;;8.32;;
76475;SDS011;65308;50.078;14.854;2024-01-10T13:16:19;16.48;;;7.20;;
76475;SDS011;65308;50.078;14.854;2024-01-10T13:18:46;19.52;;;8.13;;
76475;SDS011;65308;50.078;14.854;2024-01-10T13:21:13;16.13;;;7.07;;
76475;SDS011;65308;50.078;14.854;2024-01-10T13:23:42;17.40;;;7.68;;
76475;SDS011;65308;50.078;14.854;2024-01-10T13:26:09;16.40;;;7.35;;
76475;SDS011;65308;50.078;14.854;2024-01-10T13:28:36;13.93;;;6.70;;
76475;SDS011;65308;50.078;14.854;2024-01-10T13:31:04;19.00;;;7.95;;
76475;SDS011;65308;50.078;14.854;2024-01-10T13:33:31;21.50;;;8.63;;
76475;SDS011;65308;50.078;14.854;2024-01-10T13:35:57;20.77;;;8.27;;
76475;SDS011;65308;50.078;14.854;2024-01-10T13:38:24;20.13;;;8.60;;
76475;SDS011;65308;50.078;14.854;2024-01-10T13:40:51;26.23;;;10.07;;
76475;SDS011;65308;50.078;14.854;2024-01-10T13:43:18;22.25;;;9.68;;
76475;SDS011;65308;50.078;14.854;2024-01-10T13:45:44;21.70;;;8.20;;
76475;SDS011;65308;50.078;14.854;2024-01-10T13:48:12;17.50;;;7.97;;
76475;SDS011;65308;50.078;14.854;2024-01-10T13:53:05;15.52;;;7.53;;
76475;SDS011;65308;50.078;14.854;2024-01-10T13:55:32;16.63;;;6.90;;
76475;SDS011;65308;50.078;14.854;2024-01-10T13:58:00;15.50;;;7.13;;
76475;SDS011;65308;50.078;14.854;2024-01-10T14:00:27;21.35;;;7.30;;
76475;SDS011;65308;50.078;14.854;2024-01-10T14:02:53;17.10;;;8.10;;
76475;SDS011;65308;50.078;14.854;2024-01-10T14:05:26;16.55;;;7.88;;
76475;SDS011;65308;50.078;14.854;2024-01-10T14:07:53;14.65;;;7.03;;
76475;SDS011;65308;50.078;14.854;2024-01-10T14:10:20;18.02;;;7.63;;
76475;SDS011;65308;50.078;14.854;2024-01-10T14:12:47;16.70;;;7.22;;
76475;SDS011;65308;50.078;14.854;2024-01-10T14:15:13;18.42;;;8.57;;
76475;SDS011;65308;50.078;14.854;2024-01-10T14:17:40;23.17;;;9.35;;
76475;SDS011;65308;50.078;14.854;2024-01-10T14:20:07;17.58;;;7.28;;
76475;SDS011;65308;50.078;14.854;2024-01-10T14:22:36;17.10;;;7.13;;
76475;SDS011;65308;50.078;14.854;2024-01-10T14:25:03;19.20;;;7.68;;
76475;SDS011;65308;50.078;14.854;2024-01-10T14:27:31;13.82;;;6.85;;
76475;SDS011;65308;50.078;14.854;2024-01-10T14:29:58;19.58;;;8.00;;
76475;SDS011;65308;50.078;14.854;2024-01-10T14:32:28;15.48;;;7.72;;
76475;SDS011;65308;50.078;14.854;2024-01-10T14:34:55;15.45;;;6.90;;